createdAt,value
2022-09-24T00:00:55.916Z,0.00
2022-09-24T00:01:55.978Z,0.00
2022-09-24T00:02:55.908Z,0.00
2022-09-24T00:03:55.860Z,0.00
2022-09-24T00:04:55.870Z,0.00
2022-09-24T00:05:55.828Z,0.00
2022-09-24T00:06:55.807Z,0.00
2022-09-24T00:07:55.790Z,0.00
2022-09-24T00:08:55.782Z,0.00
2022-09-24T00:09:55.756Z,0.00
2022-09-24T00:10:55.744Z,0.00
2022-09-24T00:11:55.723Z,0.00
2022-09-24T00:12:55.704Z,0.00
2022-09-24T00:13:55.690Z,0.00
2022-09-24T00:14:55.673Z,0.00
2022-09-24T00:15:55.678Z,0.00
2022-09-24T00:16:55.638Z,0.00
2022-09-24T00:17:55.614Z,0.00
2022-09-24T00:18:55.601Z,0.00
2022-09-24T00:19:55.584Z,0.00
2022-09-24T00:20:55.583Z,0.00
2022-09-24T00:21:55.542Z,0.00
2022-09-24T00:22:55.524Z,0.00
2022-09-24T00:23:55.506Z,0.00
2022-09-24T00:24:55.492Z,0.00
2022-09-24T00:25:55.475Z,0.00
2022-09-24T00:26:55.453Z,0.00
2022-09-24T00:27:55.437Z,0.00
2022-09-24T00:28:55.419Z,0.00
2022-09-24T00:29:55.400Z,0.00
2022-09-24T00:30:55.426Z,0.00
2022-09-24T00:31:55.473Z,0.00
2022-09-24T00:32:55.355Z,0.00
2022-09-24T00:33:55.333Z,0.00
2022-09-24T00:34:55.323Z,0.00
2022-09-24T00:35:55.298Z,0.00
2022-09-24T00:36:55.301Z,0.00
2022-09-24T00:37:55.261Z,0.00
2022-09-24T00:38:55.256Z,0.00
2022-09-24T00:39:55.226Z,0.00
2022-09-24T00:40:55.210Z,0.00
2022-09-24T00:41:55.191Z,0.00
2022-09-24T00:42:55.174Z,0.00
2022-09-24T00:43:55.157Z,0.00
2022-09-24T00:44:55.139Z,0.00
2022-09-24T00:45:55.129Z,0.00
2022-09-24T00:46:55.229Z,0.00
2022-09-24T00:47:55.089Z,0.00
2022-09-24T00:48:55.066Z,0.00
2022-09-24T00:49:55.048Z,0.00
2022-09-24T00:50:55.037Z,0.00
2022-09-24T00:51:55.013Z,0.00
2022-09-24T00:52:55.017Z,0.00
2022-09-24T00:53:54.980Z,0.00
2022-09-24T00:54:54.968Z,0.00
2022-09-24T00:55:54.945Z,0.00
2022-09-24T00:56:54.933Z,0.00
2022-09-24T00:57:54.912Z,0.00
2022-09-24T00:58:54.893Z,0.00
2022-09-24T00:59:54.881Z,0.00
2022-09-24T01:00:54.919Z,0.00
2022-09-24T01:01:54.877Z,0.00
2022-09-24T01:02:54.826Z,0.00
2022-09-24T01:03:54.809Z,0.00
2022-09-24T01:04:56.552Z,0.00
2022-09-24T01:05:54.771Z,0.00
2022-09-24T01:06:54.748Z,0.00
2022-09-24T01:07:54.734Z,0.00
2022-09-24T01:08:54.744Z,0.00
2022-09-24T01:09:54.702Z,0.00
2022-09-24T01:10:54.691Z,0.00
2022-09-24T01:11:54.662Z,0.00
2022-09-24T01:12:54.646Z,0.00
2022-09-24T01:13:54.629Z,0.00
2022-09-24T01:14:54.621Z,0.00
2022-09-24T01:15:54.676Z,0.00
2022-09-24T01:16:54.579Z,0.00
2022-09-24T01:17:54.562Z,0.00
2022-09-24T01:18:54.540Z,0.00
2022-09-24T01:19:54.528Z,0.00
2022-09-24T01:20:54.508Z,0.00
2022-09-24T01:21:54.487Z,0.00
2022-09-24T01:22:54.475Z,0.00
2022-09-24T01:23:54.452Z,0.00
2022-09-24T01:24:54.457Z,0.00
2022-09-24T01:25:54.415Z,0.00
2022-09-24T01:26:54.396Z,0.00
2022-09-24T01:27:54.384Z,0.00
2022-09-24T01:28:54.369Z,0.00
2022-09-24T01:29:54.348Z,0.00
2022-09-24T01:30:54.330Z,0.00
2022-09-24T01:31:54.364Z,0.00
2022-09-24T01:32:54.295Z,0.00
2022-09-24T01:33:54.278Z,0.00
2022-09-24T01:34:54.258Z,0.00
2022-09-24T01:35:54.242Z,0.00
2022-09-24T01:36:54.233Z,0.00
2022-09-24T01:37:54.209Z,0.00
2022-09-24T01:38:54.190Z,0.00
2022-09-24T01:39:54.170Z,0.00
2022-09-24T01:40:54.270Z,0.00
2022-09-24T01:41:54.140Z,0.00
2022-09-24T01:42:54.118Z,0.00
2022-09-24T01:43:54.098Z,0.00
2022-09-24T01:44:54.080Z,0.00
2022-09-24T01:45:54.065Z,0.00
2022-09-24T01:46:54.094Z,0.00
2022-09-24T01:47:54.031Z,0.00
2022-09-24T01:48:54.013Z,0.00
2022-09-24T01:49:53.998Z,0.00
2022-09-24T01:50:53.975Z,0.00
2022-09-24T01:51:53.957Z,0.00
2022-09-24T01:52:53.945Z,0.00
2022-09-24T01:53:53.919Z,0.00
2022-09-24T01:54:53.904Z,0.00
2022-09-24T01:55:53.891Z,0.00
2022-09-24T01:56:53.891Z,0.00
2022-09-24T01:57:53.850Z,0.00
2022-09-24T01:58:53.831Z,0.00
2022-09-24T01:59:53.813Z,0.00
2022-09-24T02:00:53.857Z,0.00
2022-09-24T02:01:53.884Z,0.00
2022-09-24T02:02:53.761Z,0.00
2022-09-24T02:03:53.745Z,0.00
2022-09-24T02:04:53.731Z,0.00
2022-09-24T02:05:53.708Z,0.00
2022-09-24T02:06:53.692Z,0.00
2022-09-24T02:07:53.674Z,0.00
2022-09-24T02:08:53.656Z,0.00
2022-09-24T02:09:53.641Z,0.00
2022-09-24T02:10:53.619Z,0.00
2022-09-24T02:11:53.601Z,0.00
2022-09-24T02:12:53.600Z,0.00
2022-09-24T02:13:53.567Z,0.00
2022-09-24T02:14:53.549Z,0.00
2022-09-24T02:15:53.593Z,0.00
2022-09-24T02:16:53.514Z,0.00
2022-09-24T02:17:53.489Z,0.00
2022-09-24T02:18:53.473Z,0.00
2022-09-24T02:19:53.460Z,0.00
2022-09-24T02:20:53.443Z,0.00
2022-09-24T02:21:53.425Z,0.00
2022-09-24T02:22:53.405Z,0.00
2022-09-24T02:23:53.397Z,0.00
2022-09-24T02:24:53.370Z,0.00
2022-09-24T02:25:53.348Z,0.00
2022-09-24T02:26:53.338Z,0.00
2022-09-24T02:27:53.315Z,0.00
2022-09-24T02:28:53.319Z,0.00
2022-09-24T02:29:53.282Z,0.00
2022-09-24T02:30:53.261Z,0.00
2022-09-24T02:31:53.343Z,0.00
2022-09-24T02:32:53.230Z,0.00
2022-09-24T02:33:53.212Z,0.00
2022-09-24T02:34:53.189Z,0.00
2022-09-24T02:35:53.179Z,0.00
2022-09-24T02:36:53.156Z,0.00
2022-09-24T02:37:53.131Z,0.00
2022-09-24T02:38:53.124Z,0.00
2022-09-24T02:39:53.093Z,0.00
2022-09-24T02:40:53.144Z,0.00
2022-09-24T02:41:53.057Z,0.00
2022-09-24T02:42:53.042Z,0.00
2022-09-24T02:43:53.036Z,0.00
2022-09-24T02:44:53.029Z,0.00
2022-09-24T02:45:52.987Z,0.00
2022-09-24T02:46:53.049Z,0.00
2022-09-24T02:47:52.952Z,0.00
2022-09-24T02:48:52.936Z,0.00
2022-09-24T02:49:52.919Z,0.00
2022-09-24T02:50:52.896Z,0.00
2022-09-24T02:51:52.885Z,0.00
2022-09-24T02:52:52.866Z,0.00
2022-09-24T02:53:52.849Z,0.00
2022-09-24T02:54:52.832Z,0.00
2022-09-24T02:55:52.809Z,0.00
2022-09-24T02:56:52.796Z,0.00
2022-09-24T02:57:52.772Z,0.00
2022-09-24T02:58:52.760Z,0.00
2022-09-24T02:59:52.740Z,0.00
2022-09-24T03:00:52.740Z,0.00
2022-09-24T03:01:52.818Z,0.00
2022-09-24T03:02:52.770Z,0.00
2022-09-24T03:03:52.667Z,0.00
2022-09-24T03:04:52.649Z,0.00
2022-09-24T03:05:52.634Z,0.00
2022-09-24T03:06:52.613Z,0.00
2022-09-24T03:07:52.595Z,0.00
2022-09-24T03:08:52.577Z,0.00
2022-09-24T03:09:52.561Z,0.00
2022-09-24T03:10:52.546Z,0.00
2022-09-24T03:11:52.522Z,0.00
2022-09-24T03:12:52.513Z,0.00
2022-09-24T03:13:52.493Z,0.00
2022-09-24T03:14:52.468Z,0.00
2022-09-24T03:15:52.533Z,0.00
2022-09-24T03:16:52.457Z,0.00
2022-09-24T03:17:52.415Z,0.00
2022-09-24T03:18:52.396Z,0.00
2022-09-24T03:19:52.380Z,0.00
2022-09-24T03:20:52.361Z,0.00
2022-09-24T03:21:52.342Z,0.00
2022-09-24T03:22:52.325Z,0.00
2022-09-24T03:23:52.305Z,0.00
2022-09-24T03:24:52.293Z,0.00
2022-09-24T03:25:52.273Z,0.00
2022-09-24T03:26:52.262Z,0.00
2022-09-24T03:27:52.235Z,0.00
2022-09-24T03:28:52.221Z,0.00
2022-09-24T03:29:52.195Z,0.00
2022-09-24T03:30:52.183Z,0.00
2022-09-24T03:31:52.258Z,0.00
2022-09-24T03:32:52.166Z,0.00
2022-09-24T03:33:52.128Z,0.00
2022-09-24T03:34:52.116Z,0.00
2022-09-24T03:35:52.092Z,0.00
2022-09-24T03:36:52.072Z,0.00
2022-09-24T03:37:52.052Z,0.00
2022-09-24T03:38:52.039Z,0.00
2022-09-24T03:39:52.015Z,0.00
2022-09-24T03:40:52.104Z,0.00
2022-09-24T03:41:51.983Z,0.00
2022-09-24T03:42:51.963Z,0.00
2022-09-24T03:43:51.945Z,0.00
2022-09-24T03:44:51.927Z,0.00
2022-09-24T03:45:51.908Z,0.00
2022-09-24T03:46:52.007Z,0.00
2022-09-24T03:47:51.873Z,0.00
2022-09-24T03:48:51.966Z,0.00
2022-09-24T03:49:51.835Z,0.00
2022-09-24T03:50:51.817Z,0.00
2022-09-24T03:51:51.822Z,0.00
2022-09-24T03:52:51.786Z,0.00
2022-09-24T03:53:51.767Z,0.00
2022-09-24T03:54:51.745Z,0.00
2022-09-24T03:55:51.729Z,0.00
2022-09-24T03:56:51.711Z,0.00
2022-09-24T03:57:51.687Z,0.00
2022-09-24T03:58:51.675Z,0.00
2022-09-24T03:59:51.659Z,0.00
2022-09-24T04:00:51.643Z,0.00
2022-09-24T04:01:51.700Z,0.00
2022-09-24T04:02:51.733Z,0.00
2022-09-24T04:03:51.585Z,0.00
2022-09-24T04:04:51.589Z,0.00
2022-09-24T04:05:51.544Z,0.00
2022-09-24T04:06:51.533Z,0.00
2022-09-24T04:07:51.513Z,0.00
2022-09-24T04:08:51.498Z,0.00
2022-09-24T04:09:51.469Z,0.00
2022-09-24T04:10:51.455Z,0.00
2022-09-24T04:11:51.455Z,0.00
2022-09-24T04:12:51.414Z,0.00
2022-09-24T04:13:51.415Z,0.00
2022-09-24T04:14:51.383Z,0.00
2022-09-24T04:15:51.411Z,0.00
2022-09-24T04:16:51.345Z,0.00
2022-09-24T04:17:51.329Z,0.00
2022-09-24T04:18:51.312Z,0.00
2022-09-24T04:19:51.293Z,0.00
2022-09-24T04:20:51.298Z,0.00
2022-09-24T04:21:51.250Z,0.00
2022-09-24T04:22:51.238Z,0.00
2022-09-24T04:23:51.217Z,0.00
2022-09-24T04:24:51.198Z,0.00
2022-09-24T04:25:51.183Z,0.00
2022-09-24T04:26:51.165Z,0.00
2022-09-24T04:27:51.143Z,0.00
2022-09-24T04:28:51.123Z,0.00
2022-09-24T04:29:51.106Z,0.00
2022-09-24T04:30:51.207Z,0.00
2022-09-24T04:31:51.144Z,0.00
2022-09-24T04:32:51.055Z,0.00
2022-09-24T04:33:51.029Z,0.00
2022-09-24T04:34:51.017Z,0.00
2022-09-24T04:35:50.997Z,0.00
2022-09-24T04:36:51.002Z,0.00
2022-09-24T04:37:50.967Z,0.00
2022-09-24T04:38:50.946Z,0.00
2022-09-24T04:39:50.923Z,0.00
2022-09-24T04:40:50.959Z,0.00
2022-09-24T04:41:50.891Z,0.00
2022-09-24T04:42:50.875Z,0.00
2022-09-24T04:43:50.853Z,0.00
2022-09-24T04:44:55.905Z,0.00
2022-09-24T04:45:50.816Z,0.00
2022-09-24T04:46:50.862Z,0.00
2022-09-24T04:47:50.778Z,0.00
2022-09-24T04:48:50.761Z,0.00
2022-09-24T04:49:50.741Z,0.00
2022-09-24T04:50:50.723Z,0.00
2022-09-24T04:51:50.704Z,0.00
2022-09-24T04:52:50.709Z,0.00
2022-09-24T04:53:50.670Z,0.00
2022-09-24T04:54:50.650Z,0.00
2022-09-24T04:55:50.628Z,0.00
2022-09-24T04:56:50.616Z,0.00
2022-09-24T04:57:50.593Z,0.00
2022-09-24T04:58:50.583Z,0.00
2022-09-24T04:59:50.558Z,0.00
2022-09-24T05:00:50.540Z,0.00
2022-09-24T05:01:50.681Z,4.00
2022-09-24T05:02:50.643Z,4.00
2022-09-24T05:03:50.484Z,0.00
2022-09-24T05:04:50.465Z,0.00
2022-09-24T05:05:50.457Z,4.00
2022-09-24T05:06:50.429Z,4.00
2022-09-24T05:07:50.412Z,4.00
2022-09-24T05:08:50.416Z,4.00
2022-09-24T05:09:50.381Z,4.00
2022-09-24T05:10:50.356Z,8.00
2022-09-24T05:11:50.337Z,4.00
2022-09-24T05:12:50.316Z,8.00
2022-09-24T05:13:50.301Z,8.00
2022-09-24T05:14:50.282Z,8.00
2022-09-24T05:15:50.308Z,8.00
2022-09-24T05:16:50.244Z,12.00
2022-09-24T05:17:50.227Z,8.00
2022-09-24T05:18:50.203Z,12.00
2022-09-24T05:19:50.193Z,12.00
2022-09-24T05:20:50.170Z,16.00
2022-09-24T05:21:50.149Z,12.00
2022-09-24T05:22:50.137Z,16.00
2022-09-24T05:23:50.109Z,16.00
2022-09-24T05:24:50.117Z,20.00
2022-09-24T05:25:50.074Z,20.00
2022-09-24T05:26:50.057Z,24.00
2022-09-24T05:27:50.038Z,32.00
2022-09-24T05:28:50.023Z,32.00
2022-09-24T05:29:50.006Z,36.00
2022-09-24T05:30:50.035Z,44.00
2022-09-24T05:31:50.045Z,48.00
2022-09-24T05:32:49.945Z,52.00
2022-09-24T05:33:49.928Z,56.00
2022-09-24T05:34:49.911Z,60.00
2022-09-24T05:35:49.895Z,68.00
2022-09-24T05:36:49.873Z,72.00
2022-09-24T05:37:49.910Z,76.00
2022-09-24T05:38:49.833Z,84.00
2022-09-24T05:39:49.816Z,92.00
2022-09-24T05:40:49.932Z,96.00
2022-09-24T05:41:49.779Z,104.00
2022-09-24T05:42:49.762Z,116.00
2022-09-24T05:43:49.740Z,116.00
2022-09-24T05:44:52.288Z,132.00
2022-09-24T05:45:49.705Z,136.00
2022-09-24T05:46:49.795Z,144.00
2022-09-24T05:47:49.670Z,148.00
2022-09-24T05:48:49.648Z,152.00
2022-09-24T05:49:49.632Z,156.00
2022-09-24T05:50:49.610Z,160.00
2022-09-24T05:51:49.591Z,172.00
2022-09-24T05:52:49.577Z,176.00
2022-09-24T05:53:49.583Z,188.00
2022-09-24T05:54:49.560Z,200.00
2022-09-24T05:55:49.527Z,216.00
2022-09-24T05:56:49.532Z,232.00
2022-09-24T05:57:49.491Z,248.00
2022-09-24T05:58:49.466Z,264.00
2022-09-24T05:59:49.455Z,272.00
2022-09-24T06:00:49.428Z,284.00
2022-09-24T06:01:49.470Z,300.00
2022-09-24T06:02:49.434Z,316.00
2022-09-24T06:03:49.371Z,332.00
2022-09-24T06:04:49.351Z,348.00
2022-09-24T06:05:49.338Z,364.00
2022-09-24T06:06:49.313Z,372.00
2022-09-24T06:07:49.295Z,384.00
2022-09-24T06:08:49.279Z,388.00
2022-09-24T06:09:49.259Z,396.00
2022-09-24T06:10:49.240Z,404.00
2022-09-24T06:11:49.232Z,412.00
2022-09-24T06:12:49.227Z,416.00
2022-09-24T06:13:49.187Z,416.00
2022-09-24T06:14:49.165Z,416.00
2022-09-24T06:15:49.230Z,416.00
2022-09-24T06:16:49.133Z,412.00
2022-09-24T06:17:49.132Z,416.00
2022-09-24T06:18:49.093Z,424.00
2022-09-24T06:19:49.076Z,436.00
2022-09-24T06:20:49.058Z,436.00
2022-09-24T06:21:49.040Z,444.00
2022-09-24T06:22:49.024Z,460.00
2022-09-24T06:23:49.003Z,472.00
2022-09-24T06:24:48.990Z,480.00
2022-09-24T06:25:48.961Z,484.00
2022-09-24T06:26:48.945Z,492.00
2022-09-24T06:27:48.929Z,504.00
2022-09-24T06:28:49.263Z,512.00
2022-09-24T06:29:48.892Z,528.00
2022-09-24T06:30:48.877Z,544.00
2022-09-24T06:31:48.965Z,556.00
2022-09-24T06:32:48.834Z,580.00
2022-09-24T06:33:48.816Z,600.00
2022-09-24T06:34:48.797Z,620.00
2022-09-24T06:35:48.777Z,652.00
2022-09-24T06:36:48.768Z,684.00
2022-09-24T06:37:48.748Z,728.00
2022-09-24T06:38:48.722Z,768.00
2022-09-24T06:39:48.705Z,812.00
2022-09-24T06:40:48.785Z,872.00
2022-09-24T06:41:48.668Z,936.00
2022-09-24T06:42:48.649Z,1016.00
2022-09-24T06:43:48.632Z,1100.00
2022-09-24T06:44:48.635Z,1172.00
2022-09-24T06:45:48.591Z,1264.00
2022-09-24T06:46:48.676Z,1336.00
2022-09-24T06:47:48.561Z,1352.00
2022-09-24T06:48:48.540Z,1356.00
2022-09-24T06:49:48.521Z,1352.00
2022-09-24T06:50:48.503Z,1352.00
2022-09-24T06:51:48.492Z,1352.00
2022-09-24T06:52:48.465Z,1364.00
2022-09-24T06:53:48.453Z,1388.00
2022-09-24T06:54:48.429Z,1404.00
2022-09-24T06:55:48.416Z,1412.00
2022-09-24T06:56:48.395Z,1436.00
2022-09-24T06:57:48.382Z,1464.00
2022-09-24T06:58:48.359Z,1480.00
2022-09-24T06:59:48.338Z,1512.00
2022-09-24T07:00:48.398Z,1528.00
2022-09-24T07:01:48.392Z,1552.00
2022-09-24T07:02:48.283Z,1548.00
2022-09-24T07:03:48.265Z,1532.00
2022-09-24T07:04:48.244Z,1500.00
2022-09-24T07:05:48.229Z,1476.00
2022-09-24T07:06:48.207Z,1460.00
2022-09-24T07:07:48.190Z,1468.00
2022-09-24T07:08:48.174Z,1480.00
2022-09-24T07:09:48.157Z,1504.00
2022-09-24T07:10:48.140Z,1524.00
2022-09-24T07:11:48.120Z,1564.00
2022-09-24T07:12:48.101Z,1600.00
2022-09-24T07:13:48.084Z,1648.00
2022-09-24T07:14:48.063Z,1668.00
2022-09-24T07:15:48.072Z,1668.00
2022-09-24T07:16:48.048Z,1660.00
2022-09-24T07:17:48.008Z,1712.00
2022-09-24T07:18:47.993Z,1752.00
2022-09-24T07:19:47.975Z,1832.00
2022-09-24T07:20:47.953Z,1912.00
2022-09-24T07:21:47.940Z,2016.00
2022-09-24T07:22:47.918Z,2116.00
2022-09-24T07:23:47.904Z,2264.00
2022-09-24T07:24:47.886Z,2448.00
2022-09-24T07:25:47.867Z,2728.00
2022-09-24T07:26:47.855Z,2972.00
2022-09-24T07:27:47.830Z,2860.00
2022-09-24T07:28:47.812Z,2776.00
2022-09-24T07:29:47.797Z,2784.00
2022-09-24T07:30:47.780Z,2852.00
2022-09-24T07:31:47.864Z,3208.00
2022-09-24T07:32:47.760Z,3976.00
2022-09-24T07:33:47.730Z,4012.00
2022-09-24T07:34:47.705Z,4224.00
2022-09-24T07:35:47.690Z,3544.00
2022-09-24T07:36:47.674Z,3700.00
2022-09-24T07:37:47.655Z,3280.00
2022-09-24T07:38:47.648Z,2788.00
2022-09-24T07:39:47.622Z,2672.00
2022-09-24T07:40:47.723Z,2416.00
2022-09-24T07:41:47.581Z,2376.00
2022-09-24T07:42:47.563Z,2224.00
2022-09-24T07:43:47.547Z,2140.00
2022-09-24T07:44:47.532Z,2092.00
2022-09-24T07:45:47.510Z,2092.00
2022-09-24T07:46:47.561Z,2100.00
2022-09-24T07:47:47.483Z,2128.00
2022-09-24T07:48:47.564Z,2168.00
2022-09-24T07:49:47.443Z,2148.00
2022-09-24T07:50:47.421Z,2168.00
2022-09-24T07:51:47.414Z,2256.00
2022-09-24T07:52:47.386Z,2280.00
2022-09-24T07:53:47.373Z,2308.00
2022-09-24T07:54:47.353Z,2308.00
2022-09-24T07:55:47.337Z,2320.00
2022-09-24T07:56:47.321Z,2372.00
2022-09-24T07:57:47.301Z,2408.00
2022-09-24T07:58:47.283Z,2444.00
2022-09-24T07:59:47.266Z,2496.00
2022-09-24T08:00:47.247Z,2508.00
2022-09-24T08:01:47.251Z,2520.00
2022-09-24T08:02:47.212Z,2592.00
2022-09-24T08:03:47.321Z,2600.00
2022-09-24T08:04:47.200Z,2636.00
2022-09-24T08:05:47.161Z,2668.00
2022-09-24T08:06:47.807Z,2640.00
2022-09-24T08:07:47.129Z,2516.00
2022-09-24T08:08:47.106Z,2504.00
2022-09-24T08:09:47.094Z,2600.00
2022-09-24T08:10:47.075Z,2532.00
2022-09-24T08:11:47.059Z,2480.00
2022-09-24T08:12:47.038Z,2644.00
2022-09-24T08:13:47.024Z,2480.00
2022-09-24T08:14:47.007Z,2776.00
2022-09-24T08:15:47.057Z,2912.00
2022-09-24T08:16:46.973Z,2988.00
2022-09-24T08:17:46.952Z,3048.00
2022-09-24T08:18:46.934Z,3172.00
2022-09-24T08:19:46.917Z,3192.00
2022-09-24T08:20:46.921Z,3336.00
2022-09-24T08:21:46.880Z,3372.00
2022-09-24T08:22:46.863Z,3404.00
2022-09-24T08:23:46.846Z,3236.00
2022-09-24T08:24:46.835Z,3324.00
2022-09-24T08:25:46.814Z,3272.00
2022-09-24T08:26:46.795Z,3380.00
2022-09-24T08:27:46.779Z,3768.00
2022-09-24T08:28:46.769Z,4004.00
2022-09-24T08:29:46.750Z,4332.00
2022-09-24T08:30:46.806Z,4144.00
2022-09-24T08:31:46.758Z,4244.00
2022-09-24T08:32:46.691Z,4128.00
2022-09-24T08:33:46.672Z,3844.00
2022-09-24T08:34:46.655Z,3396.00
2022-09-24T08:35:46.637Z,3092.00
2022-09-24T08:36:46.647Z,2924.00
2022-09-24T08:37:46.607Z,2784.00
2022-09-24T08:38:46.589Z,2664.00
2022-09-24T08:39:46.575Z,2564.00
2022-09-24T08:40:46.667Z,2548.00
2022-09-24T08:41:46.549Z,2636.00
2022-09-24T08:42:46.526Z,2784.00
2022-09-24T08:43:46.506Z,2944.00
2022-09-24T08:44:46.499Z,3068.00
2022-09-24T08:45:46.470Z,3264.00
2022-09-24T08:46:46.590Z,3596.00
2022-09-24T08:47:46.440Z,3652.00
2022-09-24T08:48:46.429Z,3832.00
2022-09-24T08:49:46.402Z,3776.00
2022-09-24T08:50:46.390Z,3832.00
2022-09-24T08:51:46.373Z,4020.00
2022-09-24T08:52:46.459Z,4152.00
2022-09-24T08:53:46.337Z,4204.00
2022-09-24T08:54:46.320Z,3928.00
2022-09-24T08:55:46.308Z,4088.00
2022-09-24T08:56:46.291Z,4032.00
2022-09-24T08:57:46.270Z,3884.00
2022-09-24T08:58:46.254Z,3872.00
2022-09-24T08:59:46.237Z,4156.00
2022-09-24T09:00:46.222Z,4252.00
2022-09-24T09:01:46.358Z,4592.00
2022-09-24T09:02:46.266Z,4516.00
2022-09-24T09:03:46.172Z,4412.00
2022-09-24T09:04:46.155Z,4488.00
2022-09-24T09:05:49.510Z,4620.00
2022-09-24T09:06:46.127Z,4632.00
2022-09-24T09:07:46.105Z,4616.00
2022-09-24T09:09:05.708Z,4676.00
2022-09-24T09:09:46.074Z,4712.00
2022-09-24T09:10:46.057Z,4788.00
2022-09-24T09:11:46.044Z,5112.00
2022-09-24T09:12:46.026Z,5284.00
2022-09-24T09:13:46.006Z,5196.00
2022-09-24T09:14:46.001Z,5128.00
2022-09-24T09:15:46.041Z,5212.00
2022-09-24T09:16:45.958Z,5092.00
2022-09-24T09:17:45.948Z,5004.00
2022-09-24T09:18:45.931Z,4952.00
2022-09-24T09:19:49.185Z,4896.00
2022-09-24T09:20:45.915Z,5020.00
2022-09-24T09:21:45.886Z,4860.00
2022-09-24T09:22:45.889Z,4652.00
2022-09-24T09:23:45.848Z,4752.00
2022-09-24T09:24:45.854Z,5508.00
2022-09-24T09:25:45.814Z,5836.00
2022-09-24T09:26:45.799Z,5748.00
2022-09-24T09:27:45.785Z,5632.00
2022-09-24T09:28:45.775Z,5488.00
2022-09-24T09:29:45.752Z,5696.00
2022-09-24T09:30:45.737Z,5680.00
2022-09-24T09:31:45.831Z,5764.00
2022-09-24T09:32:45.711Z,5844.00
2022-09-24T09:33:45.692Z,5832.00
2022-09-24T09:34:45.679Z,5960.00
2022-09-24T09:35:45.658Z,6012.00
2022-09-24T09:36:45.650Z,5532.00
2022-09-24T09:37:45.631Z,5456.00
2022-09-24T09:38:45.617Z,5816.00
2022-09-24T09:39:45.599Z,5924.00
2022-09-24T09:40:45.639Z,5812.00
2022-09-24T09:41:45.569Z,5316.00
2022-09-24T09:42:45.564Z,4852.00
2022-09-24T09:43:45.539Z,4964.00
2022-09-24T09:44:45.524Z,5520.00
2022-09-24T09:45:45.510Z,5772.00
2022-09-24T09:46:45.588Z,6148.00
2022-09-24T09:47:45.486Z,6364.00
2022-09-24T09:48:45.469Z,5480.00
2022-09-24T09:49:45.456Z,5024.00
2022-09-24T09:50:45.436Z,4348.00
2022-09-24T09:51:45.419Z,3368.00
2022-09-24T09:52:45.409Z,2948.00
2022-09-24T09:53:45.390Z,3072.00
2022-09-24T09:54:45.375Z,3556.00
2022-09-24T09:55:45.361Z,3252.00
2022-09-24T09:56:45.384Z,3132.00
2022-09-24T09:57:45.326Z,3412.00
2022-09-24T09:58:45.315Z,3720.00
2022-09-24T09:59:45.303Z,3808.00
2022-09-24T10:00:45.283Z,3948.00
2022-09-24T10:01:45.331Z,4776.00
2022-09-24T10:02:45.357Z,5488.00
2022-09-24T10:03:45.345Z,5444.00
2022-09-24T10:04:45.228Z,5008.00
2022-09-24T10:05:45.215Z,5520.00
2022-09-24T10:06:45.198Z,6504.00
2022-09-24T10:07:45.178Z,6924.00
2022-09-24T10:08:45.166Z,6888.00
2022-09-24T10:09:45.150Z,6748.00
2022-09-24T10:10:45.132Z,6612.00
2022-09-24T10:11:45.119Z,6364.00
2022-09-24T10:12:45.126Z,5668.00
2022-09-24T10:13:45.088Z,4604.00
2022-09-24T10:14:45.072Z,4008.00
2022-09-24T10:15:45.699Z,4352.00
2022-09-24T10:16:45.129Z,4632.00
2022-09-24T10:17:45.037Z,4772.00
2022-09-24T10:18:45.013Z,4352.00
2022-09-24T10:19:44.999Z,3828.00
2022-09-24T10:20:44.987Z,3292.00
2022-09-24T10:21:44.971Z,3232.00
2022-09-24T10:22:44.954Z,3760.00
2022-09-24T10:23:44.935Z,3840.00
2022-09-24T10:24:44.922Z,4004.00
2022-09-24T10:25:44.905Z,3804.00
2022-09-24T10:26:45.660Z,3868.00
2022-09-24T10:27:44.877Z,3992.00
2022-09-24T10:28:44.880Z,4524.00
2022-09-24T10:29:44.842Z,4596.00
2022-09-24T10:30:44.833Z,4612.00
2022-09-24T10:31:44.859Z,4404.00
2022-09-24T10:32:44.809Z,4264.00
2022-09-24T10:33:44.785Z,4500.00
2022-09-24T10:34:44.774Z,4576.00
2022-09-24T10:35:44.756Z,3916.00
2022-09-24T10:36:44.742Z,3680.00
2022-09-24T10:37:44.723Z,3896.00
2022-09-24T10:38:44.719Z,4280.00
2022-09-24T10:39:44.701Z,4344.00
2022-09-24T10:40:44.729Z,4356.00
2022-09-24T10:41:44.669Z,4796.00
2022-09-24T10:42:44.648Z,4756.00
2022-09-24T10:43:44.639Z,4888.00
2022-09-24T10:44:48.064Z,5752.00
2022-09-24T10:45:44.613Z,5912.00
2022-09-24T10:46:44.624Z,5936.00
2022-09-24T10:47:44.569Z,5672.00
2022-09-24T10:48:44.557Z,5428.00
2022-09-24T10:49:44.545Z,5596.00
2022-09-24T10:50:44.531Z,4896.00
2022-09-24T10:51:44.517Z,4604.00
2022-09-24T10:52:44.502Z,4064.00
2022-09-24T10:53:44.481Z,3564.00
2022-09-24T10:54:44.469Z,3216.00
2022-09-24T10:55:44.453Z,3104.00
2022-09-24T10:56:46.545Z,2928.00
2022-09-24T10:57:44.426Z,2864.00
2022-09-24T10:58:44.408Z,3228.00
2022-09-24T10:59:44.397Z,3600.00
2022-09-24T11:00:44.403Z,3548.00
2022-09-24T11:01:44.432Z,3404.00
2022-09-24T11:02:44.419Z,3328.00
2022-09-24T11:03:44.334Z,3248.00
2022-09-24T11:04:44.319Z,3060.00
2022-09-24T11:05:44.306Z,2788.00
2022-09-24T11:06:44.291Z,2444.00
2022-09-24T11:07:44.276Z,2156.00
2022-09-24T11:08:44.257Z,2004.00
2022-09-24T11:09:44.240Z,1892.00
2022-09-24T11:10:44.233Z,1836.00
2022-09-24T11:11:44.211Z,1872.00
2022-09-24T11:12:44.199Z,1840.00
2022-09-24T11:13:46.872Z,1844.00
2022-09-24T11:14:44.173Z,1712.00
2022-09-24T11:15:44.184Z,1604.00
2022-09-24T11:16:44.157Z,1508.00
2022-09-24T11:17:44.119Z,1604.00
2022-09-24T11:18:44.103Z,2160.00
2022-09-24T11:19:44.089Z,2580.00
2022-09-24T11:20:44.075Z,2668.00
2022-09-24T11:21:44.057Z,2644.00
2022-09-24T11:22:44.066Z,2564.00
2022-09-24T11:23:44.028Z,2512.00
2022-09-24T11:24:44.010Z,2568.00
2022-09-24T11:25:44.000Z,2628.00
2022-09-24T11:26:43.977Z,2676.00
2022-09-24T11:27:43.961Z,2716.00
2022-09-24T11:28:43.956Z,2752.00
2022-09-24T11:29:43.928Z,2888.00
2022-09-24T11:30:43.925Z,2976.00
2022-09-24T11:31:43.968Z,3060.00
2022-09-24T11:32:43.901Z,3180.00
2022-09-24T11:33:43.868Z,3336.00
2022-09-24T11:34:43.856Z,3472.00
2022-09-24T11:35:43.838Z,3448.00
2022-09-24T11:36:43.822Z,3312.00
2022-09-24T11:37:43.806Z,3304.00
2022-09-24T11:38:43.792Z,3372.00
2022-09-24T11:39:43.778Z,3396.00
2022-09-24T11:40:43.901Z,3100.00
2022-09-24T11:41:43.770Z,2672.00
2022-09-24T11:42:43.726Z,2456.00
2022-09-24T11:43:43.711Z,2396.00
2022-09-24T11:44:43.698Z,2468.00
2022-09-24T11:45:43.680Z,2532.00
2022-09-24T11:46:43.734Z,2552.00
2022-09-24T11:47:43.653Z,2536.00
2022-09-24T11:48:43.661Z,2468.00
2022-09-24T11:49:43.619Z,2292.00
2022-09-24T11:50:47.367Z,2132.00
2022-09-24T11:51:43.591Z,2088.00
2022-09-24T11:52:43.574Z,2092.00
2022-09-24T11:53:43.551Z,2212.00
2022-09-24T11:54:43.545Z,2252.00
2022-09-24T11:55:43.522Z,2196.00
2022-09-24T11:56:43.508Z,2084.00
2022-09-24T11:57:43.490Z,2052.00
2022-09-24T11:58:43.476Z,2012.00
2022-09-24T11:59:43.460Z,2100.00
2022-09-24T12:00:43.448Z,2312.00
2022-09-24T12:01:43.469Z,2472.00
2022-09-24T12:02:43.468Z,2568.00
2022-09-24T12:03:43.399Z,2616.00
2022-09-24T12:04:43.405Z,2580.00
2022-09-24T12:05:43.366Z,2572.00
2022-09-24T12:06:43.353Z,2588.00
2022-09-24T12:07:43.336Z,2572.00
2022-09-24T12:08:43.357Z,2556.00
2022-09-24T12:09:43.301Z,2536.00
2022-09-24T12:10:43.288Z,2540.00
2022-09-24T12:11:43.272Z,2500.00
2022-09-24T12:12:43.257Z,2484.00
2022-09-24T12:13:43.240Z,2476.00
2022-09-24T12:14:43.228Z,2472.00
2022-09-24T12:15:43.268Z,2404.00
2022-09-24T12:16:43.193Z,2364.00
2022-09-24T12:17:43.176Z,2404.00
2022-09-24T12:18:43.161Z,2420.00
2022-09-24T12:19:43.145Z,2388.00
2022-09-24T12:20:43.159Z,2504.00
2022-09-24T12:21:43.120Z,2620.00
2022-09-24T12:22:43.105Z,2524.00
2022-09-24T12:23:43.091Z,2304.00
2022-09-24T12:24:43.069Z,2028.00
2022-09-24T12:25:43.053Z,1792.00
2022-09-24T12:26:43.037Z,1864.00
2022-09-24T12:27:43.021Z,1940.00
2022-09-24T12:28:43.016Z,1908.00
2022-09-24T12:29:42.990Z,1876.00
2022-09-24T12:30:42.989Z,1900.00
2022-09-24T12:31:43.157Z,1948.00
2022-09-24T12:32:42.946Z,2020.00
2022-09-24T12:33:42.926Z,2064.00
2022-09-24T12:34:42.914Z,2084.00
2022-09-24T12:35:42.904Z,2072.00
2022-09-24T12:36:42.903Z,2212.00
2022-09-24T12:37:42.862Z,2408.00